Time;durP1;ratioP1;P1;durP2;ratioP2;P2;SDS_P1;SDS_P2;PMS_P1;PMS_P2;Temp;Humidity;BMP_temperature;BMP_pressure;BME280_temperature;BME280_humidity;BME280_pressure;Samples;Min_cycle;Max_cycle;Signal;HPM_P1;HPM_P2
2023/01/03 00:00:52;;;;;;;6.10;5.80;;;7.00;99.90;;;;;;5013136;28;20650;-63
2023/01/03 00:03:18;;;;;;;7.27;6.77;;;7.10;99.90;;;;;;5013255;28;20188;-63
2023/01/03 00:05:46;;;;;;;6.83;6.10;;;7.10;99.90;;;;;;5013070;28;20196;-63
2023/01/03 00:08:12;;;;;;;7.30;6.10;;;7.10;99.90;;;;;;5013296;28;20190;-63
2023/01/03 00:10:38;;;;;;;6.27;5.97;;;7.10;99.90;;;;;;5012625;28;20188;-63
2023/01/03 00:13:04;;;;;;;6.30;6.00;;;7.00;99.90;;;;;;5013011;28;20179;-63
2023/01/03 00:15:34;;;;;;;6.63;6.13;;;7.00;99.90;;;;;;5012212;28;20220;-63
2023/01/03 00:17:59;;;;;;;6.60;6.07;;;7.00;99.90;;;;;;5013270;28;20547;-63
2023/01/03 00:20:25;;;;;;;7.60;6.53;;;7.00;99.90;;;;;;5012445;28;20175;-63
2023/01/03 00:22:50;;;;;;;10.03;6.07;;;7.00;99.90;;;;;;5013181;28;20179;-63
2023/01/03 00:25:16;;;;;;;6.50;6.17;;;7.00;99.90;;;;;;5012567;28;20219;-63
2023/01/03 00:27:42;;;;;;;7.53;6.83;;;7.00;99.90;;;;;;5013460;28;20176;-63
2023/01/03 00:30:08;;;;;;;8.27;6.53;;;7.00;99.90;;;;;;5012486;28;20184;-63
2023/01/03 00:32:33;;;;;;;6.67;6.30;;;7.00;99.90;;;;;;5012782;28;20195;-63
2023/01/03 00:34:59;;;;;;;6.53;6.23;;;7.00;99.90;;;;;;5012685;28;20613;-63
2023/01/03 00:37:24;;;;;;;6.83;6.43;;;7.00;99.90;;;;;;5012573;28;20661;-63
2023/01/03 00:39:50;;;;;;;6.80;6.17;;;7.00;99.90;;;;;;5012276;28;20688;-63
2023/01/03 00:42:16;;;;;;;6.30;5.90;;;7.00;99.90;;;;;;5012631;28;20180;-63
2023/01/03 00:44:41;;;;;;;6.53;6.13;;;7.00;99.90;;;;;;5012398;28;20191;-63
2023/01/03 00:47:07;;;;;;;6.47;6.00;;;7.10;99.90;;;;;;5012627;28;20234;-63
2023/01/03 00:49:32;;;;;;;6.57;6.17;;;7.10;99.90;;;;;;5011856;28;20558;-63
2023/01/03 00:51:58;;;;;;;6.63;5.97;;;7.10;99.90;;;;;;5012073;28;20180;-63
2023/01/03 00:54:23;;;;;;;6.60;6.20;;;7.10;99.90;;;;;;5012192;28;20568;-63
2023/01/03 00:56:50;;;;;;;7.40;6.90;;;7.00;99.90;;;;;;5012328;28;20285;-63
2023/01/03 00:59:18;;;;;;;6.70;6.27;;;7.00;99.90;;;;;;5011747;28;20852;-63
2023/01/03 01:01:49;;;;;;;6.80;6.27;;;6.90;99.90;;;;;;5012344;28;20176;-63
2023/01/03 01:04:28;;;;;;;6.30;6.00;;;6.90;99.90;;;;;;5012215;28;20184;-63
2023/01/03 01:07:03;;;;;;;6.30;5.80;;;6.80;99.90;;;;;;5012332;28;20277;-63
2023/01/03 01:09:33;;;;;;;10.80;5.80;;;6.80;99.90;;;;;;5011670;28;20206;-63
2023/01/03 01:11:58;;;;;;;6.90;6.30;;;6.80;99.90;;;;;;5012310;28;20733;-63
2023/01/03 01:14:26;;;;;;;6.23;5.93;;;6.80;99.90;;;;;;5011977;28;20259;-63
2023/01/03 01:16:57;;;;;;;6.37;5.77;;;6.80;99.90;;;;;;5012278;28;20239;-63
2023/01/03 01:19:29;;;;;;;6.37;5.97;;;6.80;99.90;;;;;;5011401;28;20212;-63
2023/01/03 01:21:55;;;;;;;8.87;6.00;;;6.80;99.90;;;;;;5011032;28;20663;-63
2023/01/03 01:24:21;;;;;;;6.53;5.90;;;6.60;99.90;;;;;;5011771;28;20212;-63
2023/01/03 01:26:47;;;;;;;6.47;5.87;;;6.50;99.90;;;;;;5011222;28;20246;-62
2023/01/03 01:29:14;;;;;;;6.47;6.07;;;6.40;99.90;;;;;;5011715;28;20649;-62
2023/01/03 01:31:41;;;;;;;6.40;5.93;;;6.40;99.90;;;;;;5011786;28;20716;-63
2023/01/03 01:34:07;;;;;;;5.70;5.40;;;6.30;99.90;;;;;;5012038;28;20184;-62
2023/01/03 01:36:38;;;;;;;6.83;6.00;;;6.20;99.90;;;;;;5010417;28;20216;-62
2023/01/03 01:39:07;;;;;;;6.43;5.90;;;6.20;99.90;;;;;;5011637;28;20179;-62
2023/01/03 01:44:40;;;;;;;6.10;5.70;;;6.20;99.90;;;;;;4992515;28;20276;-62
2023/01/03 01:47:38;;;;;;;5.70;5.40;;;6.20;99.90;;;;;;5010469;28;20192;-62
2023/01/03 01:50:10;;;;;;;9.83;6.00;;;6.20;99.90;;;;;;5011921;28;20199;-62
2023/01/03 01:52:41;;;;;;;6.30;5.90;;;6.20;99.90;;;;;;5011851;28;20175;-62
2023/01/03 01:55:12;;;;;;;5.63;5.43;;;6.20;99.90;;;;;;5011624;28;20232;-62
2023/01/03 01:57:40;;;;;;;7.20;6.67;;;6.10;99.90;;;;;;5011458;28;20180;-62
2023/01/03 02:00:08;;;;;;;6.67;6.17;;;6.10;99.90;;;;;;5011556;28;20184;-62
2023/01/03 02:02:33;;;;;;;6.20;5.70;;;6.10;99.90;;;;;;5010350;28;20650;-62
2023/01/03 02:05:01;;;;;;;6.27;5.77;;;6.00;99.90;;;;;;5011619;28;20284;-62
2023/01/03 02:07:26;;;;;;;6.70;5.67;;;6.00;99.90;;;;;;5011067;28;20688;-62
2023/01/03 02:09:56;;;;;;;5.90;5.60;;;6.00;99.90;;;;;;5011399;28;20180;-62
2023/01/03 02:15:51;;;;;;;6.10;5.70;;;5.90;99.90;;;;;;5011322;28;20219;-62
2023/01/03 02:18:53;;;;;;;6.30;6.00;;;5.80;99.90;;;;;;5011626;28;20553;-62
2023/01/03 02:21:44;;;;;;;5.47;5.27;;;5.80;99.90;;;;;;5010795;28;20269;-62
2023/01/03 02:24:21;;;;;;;5.33;5.13;;;5.80;99.90;;;;;;5011321;28;20177;-60
2023/01/03 02:27:06;;;;;;;7.30;6.80;;;5.80;99.90;;;;;;5011450;28;20215;-62
2023/01/03 02:29:50;;;;;;;6.97;6.03;;;5.80;99.90;;;;;;5010828;28;20653;-62
2023/01/03 02:32:23;;;;;;;6.40;5.90;;;5.70;99.90;;;;;;5011497;28;20416;-62
2023/01/03 02:35:06;;;;;;;5.97;5.63;;;5.70;99.90;;;;;;5011203;28;20204;-62
2023/01/03 02:37:44;;;;;;;8.33;5.97;;;5.70;99.90;;;;;;5012836;28;20657;-62
2023/01/03 02:40:33;;;;;;;5.73;5.53;;;5.70;99.90;;;;;;5014403;28;20179;-62
2023/01/03 02:43:32;;;;;;;6.73;6.13;;;5.70;99.90;;;;;;5014919;28;20179;-60
2023/01/03 02:46:26;;;;;;;6.03;5.63;;;5.70;99.90;;;;;;4995237;28;20247;-62
2023/01/03 02:49:01;;;;;;;6.37;6.07;;;5.60;99.90;;;;;;5014670;28;20193;-62
2023/01/03 02:51:29;;;;;;;6.47;6.17;;;5.60;99.90;;;;;;5014273;28;20641;-62
2023/01/03 02:53:57;;;;;;;5.70;5.47;;;5.60;99.90;;;;;;5014748;28;20341;-62
2023/01/03 02:56:32;;;;;;;6.80;6.30;;;5.60;99.90;;;;;;5014148;28;20203;-62
2023/01/03 02:59:04;;;;;;;6.50;6.20;;;5.50;99.90;;;;;;5014724;28;20168;-62
2023/01/03 03:01:31;;;;;;;6.93;6.53;;;5.50;99.90;;;;;;5014261;28;20634;-62
2023/01/03 03:04:00;;;;;;;6.73;6.33;;;5.40;99.90;;;;;;5014696;28;20553;-62
2023/01/03 03:06:31;;;;;;;10.63;7.40;;;5.40;99.90;;;;;;5014072;28;20539;-62
2023/01/03 03:08:57;;;;;;;6.60;6.17;;;5.40;99.90;;;;;;5014485;28;20606;-62
2023/01/03 03:14:26;;;;;;;7.03;6.63;;;5.40;99.90;;;;;;5015420;28;20191;-62
2023/01/03 03:16:54;;;;;;;7.27;6.40;;;5.40;99.90;;;;;;5014018;28;20203;-62
2023/01/03 03:25:35;;;;;;;6.87;6.40;;;5.40;99.90;;;;;;5013967;28;20215;-62
2023/01/03 03:30:57;;;;;;;6.60;6.20;;;5.40;99.90;;;;;;5014282;28;20199;-62
2023/01/03 03:33:26;;;;;;;6.53;6.13;;;5.50;99.90;;;;;;5013854;28;20176;-62
2023/01/03 03:36:04;;;;;;;6.47;6.07;;;5.50;99.90;;;;;;5013910;28;20215;-62
2023/01/03 03:38:39;;;;;;;6.40;6.00;;;5.50;99.90;;;;;;5013651;28;20497;-62
2023/01/03 03:47:27;;;;;;;6.50;6.10;;;5.40;99.90;;;;;;4994548;28;20557;-62
2023/01/03 03:49:58;;;;;;;8.30;6.57;;;5.30;99.90;;;;;;4994048;28;20210;-62
2023/01/03 03:52:29;;;;;;;7.60;6.83;;;5.20;99.90;;;;;;5013572;28;20199;-62
2023/01/03 03:55:16;;;;;;;7.30;6.80;;;5.10;99.90;;;;;;5013305;28;20165;-62
2023/01/03 03:57:56;;;;;;;7.57;6.63;;;5.10;99.90;;;;;;5013563;28;20533;-62
2023/01/03 04:00:28;;;;;;;6.93;6.50;;;5.10;99.90;;;;;;5013063;28;20257;-62
2023/01/03 04:02:57;;;;;;;6.73;6.27;;;5.00;99.90;;;;;;5013833;28;20427;-62
2023/01/03 04:05:26;;;;;;;6.97;6.47;;;5.00;99.90;;;;;;5012951;28;20265;-62
2023/01/03 04:07:52;;;;;;;6.47;6.13;;;4.90;99.90;;;;;;5013367;28;20208;-62
2023/01/03 04:10:22;;;;;;;7.07;6.50;;;4.70;99.90;;;;;;5012798;28;20261;-62
2023/01/03 04:12:49;;;;;;;6.60;6.30;;;4.60;99.90;;;;;;5013310;28;20226;-62
2023/01/03 04:15:15;;;;;;;7.60;7.10;;;4.60;99.90;;;;;;5012779;28;20290;-61
2023/01/03 04:17:41;;;;;;;7.00;6.40;;;4.50;99.90;;;;;;5013057;28;20234;-62
2023/01/03 04:20:07;;;;;;;7.13;6.73;;;4.40;99.90;;;;;;5012613;28;20183;-62
2023/01/03 04:22:33;;;;;;;7.57;6.97;;;4.40;99.90;;;;;;5012933;28;20589;-62
2023/01/03 04:24:58;;;;;;;7.00;6.60;;;4.40;99.90;;;;;;5012680;28;20273;-62
2023/01/03 04:27:24;;;;;;;6.60;6.20;;;4.40;99.90;;;;;;5013022;28;20592;-62
2023/01/03 04:29:50;;;;;;;6.93;6.43;;;4.50;99.90;;;;;;5011752;28;20184;-62
2023/01/03 04:32:15;;;;;;;6.90;6.40;;;4.50;99.90;;;;;;5012864;28;20192;-62
2023/01/03 04:34:41;;;;;;;6.80;6.40;;;4.70;99.90;;;;;;5012471;28;20242;-62
2023/01/03 04:37:06;;;;;;;6.17;5.87;;;4.50;99.90;;;;;;5012872;28;20203;-62
2023/01/03 04:39:32;;;;;;;8.63;8.07;;;4.50;99.90;;;;;;5012075;28;20554;-62
2023/01/03 04:41:58;;;;;;;7.97;7.37;;;4.60;99.90;;;;;;5013083;28;20184;-62
2023/01/03 04:44:23;;;;;;;12.97;8.23;;;4.60;99.90;;;;;;5012736;28;20192;-62
2023/01/03 04:46:49;;;;;;;9.13;7.23;;;4.70;99.90;;;;;;5012852;28;20199;-62
2023/01/03 04:49:14;;;;;;;7.33;6.83;;;4.60;99.90;;;;;;5012157;28;20620;-62
2023/01/03 04:51:40;;;;;;;7.87;6.77;;;4.60;99.90;;;;;;5012404;28;20689;-62
2023/01/03 04:54:06;;;;;;;7.13;6.73;;;4.70;99.90;;;;;;5012252;28;20184;-61
2023/01/03 04:56:34;;;;;;;6.43;5.90;;;4.70;99.90;;;;;;5012327;28;20212;-64
2023/01/03 04:59:00;;;;;;;7.23;6.73;;;4.80;99.90;;;;;;5012448;28;20179;-62
2023/01/03 05:01:27;;;;;;;7.10;6.63;;;5.00;99.90;;;;;;5011789;28;20715;-62
2023/01/03 05:04:00;;;;;;;6.17;5.77;;;5.10;99.90;;;;;;5012242;28;20176;-62
2023/01/03 05:06:26;;;;;;;7.53;6.93;;;5.20;99.90;;;;;;5012030;28;20574;-62
2023/01/03 05:08:52;;;;;;;6.83;6.37;;;5.30;99.90;;;;;;5012313;28;20200;-62
2023/01/03 05:11:18;;;;;;;6.93;6.43;;;5.40;99.90;;;;;;5011847;28;20191;-62
2023/01/03 05:13:44;;;;;;;6.63;6.20;;;5.40;99.90;;;;;;5012130;28;20187;-62
2023/01/03 05:16:12;;;;;;;7.03;6.30;;;5.50;99.90;;;;;;5012171;28;20234;-62
2023/01/03 05:18:38;;;;;;;7.40;6.80;;;5.60;99.90;;;;;;5012869;28;20184;-62
2023/01/03 05:26:41;;;;;;;6.77;6.37;;;5.80;99.90;;;;;;5011963;28;20222;-62
2023/01/03 05:29:08;;;;;;;6.80;6.30;;;5.80;99.90;;;;;;5011519;28;20180;-62
2023/01/03 05:31:34;;;;;;;6.30;5.90;;;5.80;99.90;;;;;;5010480;28;20226;-62
2023/01/03 05:34:00;;;;;;;6.33;5.90;;;5.80;99.90;;;;;;5011236;28;20176;-62
2023/01/03 05:36:25;;;;;;;6.77;6.13;;;5.80;99.90;;;;;;5011828;28;20208;-62
2023/01/03 05:38:51;;;;;;;7.83;7.17;;;5.80;99.90;;;;;;5010646;28;20255;-62
2023/01/03 05:41:58;;;;;;;6.67;6.27;;;5.80;99.90;;;;;;5012022;28;20221;-61
2023/01/03 05:44:02;;;;;;;6.53;6.13;;;5.80;99.90;;;;;;5011933;28;20176;-62
2023/01/03 05:46:28;;;;;;;6.70;6.30;;;5.80;99.90;;;;;;5011835;28;20249;-61
2023/01/03 05:48:54;;;;;;;6.87;6.47;;;5.70;99.90;;;;;;5011581;28;20211;-62
2023/01/03 05:51:20;;;;;;;6.50;6.17;;;5.60;99.90;;;;;;5010046;28;20259;-62
2023/01/03 05:53:45;;;;;;;7.17;6.77;;;5.50;99.90;;;;;;5011493;28;20562;-62
2023/01/03 05:56:11;;;;;;;7.23;6.83;;;5.40;99.90;;;;;;5011893;28;20227;-61
2023/01/03 05:58:36;;;;;;;6.50;6.10;;;5.30;99.90;;;;;;5011439;28;20183;-62
2023/01/03 06:01:09;;;;;;;6.90;6.50;;;5.30;99.90;;;;;;5011502;28;20168;-62
2023/01/03 06:03:35;;;;;;;7.20;6.63;;;5.20;99.90;;;;;;5011356;28;20183;-63
2023/01/03 06:06:05;;;;;;;6.83;6.43;;;5.20;99.90;;;;;;5010321;28;20196;-64
2023/01/03 06:08:31;;;;;;;6.90;6.50;;;5.20;99.90;;;;;;5011569;28;20310;-62
2023/01/03 06:10:57;;;;;;;7.03;6.53;;;5.20;99.90;;;;;;5011426;28;20172;-62
2023/01/03 06:13:23;;;;;;;6.73;6.33;;;5.20;99.90;;;;;;5014350;28;20187;-62
2023/01/03 06:18:35;;;;;;;8.53;7.33;;;5.30;99.90;;;;;;5015485;28;20195;-63
2023/01/03 06:21:04;;;;;;;7.77;7.27;;;5.30;99.90;;;;;;5015101;28;20263;-62
2023/01/03 06:23:30;;;;;;;6.87;6.50;;;5.30;99.90;;;;;;5030274;28;20238;-62
2023/01/03 06:25:55;;;;;;;8.83;7.70;;;5.30;99.90;;;;;;5015224;28;20311;-62
2023/01/03 06:28:21;;;;;;;7.10;6.67;;;5.30;99.90;;;;;;5014873;28;20612;-62
2023/01/03 06:30:46;;;;;;;7.23;6.63;;;5.30;99.90;;;;;;5014985;28;20184;-62
2023/01/03 06:33:12;;;;;;;8.03;7.43;;;5.30;99.90;;;;;;5014841;28;20184;-62
2023/01/03 06:35:38;;;;;;;6.20;5.87;;;5.40;99.90;;;;;;5014766;28;20549;-62
2023/01/03 06:38:04;;;;;;;6.73;6.17;;;5.40;99.90;;;;;;5014902;28;20183;-62
2023/01/03 06:40:29;;;;;;;12.60;6.33;;;5.50;99.90;;;;;;5014989;28;20169;-62
2023/01/03 06:42:55;;;;;;;6.47;6.07;;;5.60;99.90;;;;;;5013503;28;20415;-62
2023/01/03 06:53:37;;;;;;;8.10;7.30;;;5.80;99.90;;;;;;5014013;28;20731;-62
2023/01/03 06:56:03;;;;;;;7.20;6.70;;;5.80;99.90;;;;;;5014610;28;20650;-62
2023/01/03 06:58:29;;;;;;;7.23;6.83;;;5.90;99.90;;;;;;5014331;28;20184;-62
2023/01/03 07:00:57;;;;;;;10.37;7.33;;;5.90;99.90;;;;;;5014112;28;20521;-62
2023/01/03 07:03:23;;;;;;;7.37;6.97;;;5.90;99.90;;;;;;5014508;28;20530;-62
2023/01/03 07:05:48;;;;;;;7.17;6.67;;;6.00;99.90;;;;;;5014208;28;20200;-62
2023/01/03 07:08:14;;;;;;;7.33;6.93;;;6.00;99.90;;;;;;5014690;28;20187;-62
2023/01/03 07:10:40;;;;;;;7.20;6.50;;;6.00;99.90;;;;;;5010581;28;20184;-62
2023/01/03 07:15:50;;;;;;;7.20;6.70;;;6.00;99.90;;;;;;5014016;28;20223;-62
2023/01/03 07:18:16;;;;;;;7.73;7.17;;;6.00;99.90;;;;;;5014321;28;20654;-62
2023/01/03 07:20:43;;;;;;;6.77;6.33;;;6.00;99.90;;;;;;5013495;28;20179;-62
2023/01/03 07:23:09;;;;;;;7.47;6.87;;;6.00;99.90;;;;;;5014094;28;20168;-62
2023/01/03 07:25:39;;;;;;;7.73;7.13;;;6.00;99.90;;;;;;5043207;22;20250;-63
2023/01/03 07:28:11;;;;;;;7.93;7.23;;;6.00;99.90;;;;;;5034610;28;20266;-64
2023/01/03 07:30:42;;;;;;;7.20;6.80;;;6.00;99.90;;;;;;5035428;28;20175;-64
2023/01/03 07:33:10;;;;;;;7.27;6.77;;;6.10;99.90;;;;;;5049622;28;20607;-65
2023/01/03 07:35:36;;;;;;;6.63;6.17;;;6.10;99.90;;;;;;5033870;28;20217;-64
2023/01/03 07:38:02;;;;;;;8.80;6.47;;;6.10;99.90;;;;;;5033632;28;20191;-66
2023/01/03 07:40:28;;;;;;;7.00;6.60;;;6.20;99.90;;;;;;5033415;28;20172;-65
2023/01/03 07:45:45;;;;;;;6.67;6.30;;;6.20;99.90;;;;;;5014966;28;20270;-66
2023/01/03 07:48:11;;;;;;;7.00;6.60;;;6.10;99.90;;;;;;5014363;28;20176;-65
2023/01/03 07:50:37;;;;;;;8.00;7.40;;;6.10;99.90;;;;;;5033055;28;20588;-65
2023/01/03 07:53:07;;;;;;;9.60;7.13;;;6.10;99.90;;;;;;5033395;28;20178;-65
2023/01/03 07:55:34;;;;;;;7.23;6.57;;;6.10;99.90;;;;;;5032654;28;20204;-66
2023/01/03 07:58:00;;;;;;;14.50;6.90;;;6.20;99.90;;;;;;5033287;28;20198;-66
2023/01/03 08:00:26;;;;;;;7.33;6.80;;;6.30;99.90;;;;;;5032599;28;20645;-66
2023/01/03 08:02:53;;;;;;;7.87;7.07;;;6.30;99.90;;;;;;5033248;28;20175;-65
2023/01/03 08:05:20;;;;;;;7.03;6.40;;;6.40;99.90;;;;;;5032873;28;20231;-65
2023/01/03 08:07:47;;;;;;;7.23;6.70;;;6.40;99.90;;;;;;5033025;28;20171;-65
2023/01/03 08:13:16;;;;;;;7.40;6.80;;;6.50;99.90;;;;;;5033084;28;20263;-65
2023/01/03 08:15:55;;;;;;;6.20;5.80;;;6.50;99.90;;;;;;5032862;28;20845;-65
2023/01/03 08:18:24;;;;;;;6.80;6.30;;;6.60;99.90;;;;;;5032817;28;20552;-64
2023/01/03 08:20:50;;;;;;;7.00;6.50;;;6.60;99.90;;;;;;5032634;28;20168;-65
2023/01/03 08:23:16;;;;;;;7.63;6.90;;;6.70;99.90;;;;;;5032679;28;20237;-64
2023/01/03 08:25:42;;;;;;;6.47;5.97;;;6.70;99.90;;;;;;5032574;28;20657;-65
2023/01/03 08:28:09;;;;;;;7.47;6.97;;;6.70;99.90;;;;;;5032419;28;20179;-65
2023/01/03 08:30:40;;;;;;;6.80;6.40;;;6.80;99.90;;;;;;5032323;28;20562;-65
2023/01/03 08:33:08;;;;;;;6.93;6.50;;;6.80;99.90;;;;;;5031842;28;20175;-66
2023/01/03 08:35:36;;;;;;;6.47;6.13;;;6.80;99.90;;;;;;5031803;28;20604;-65
2023/01/03 08:38:05;;;;;;;7.07;6.47;;;6.90;99.90;;;;;;5032442;28;20176;-65
2023/01/03 08:40:34;;;;;;;6.33;5.83;;;6.90;99.90;;;;;;5031978;28;20171;-66
2023/01/03 08:43:01;;;;;;;7.60;6.90;;;6.90;99.90;;;;;;5032133;28;20321;-66
2023/01/03 08:45:27;;;;;;;8.97;6.60;;;6.90;99.90;;;;;;5032453;28;20199;-65
2023/01/03 08:47:53;;;;;;;6.33;6.00;;;6.90;99.90;;;;;;5031842;28;20183;-65
2023/01/03 08:50:19;;;;;;;7.53;5.87;;;6.90;99.90;;;;;;5032002;28;20171;-66
2023/01/03 08:52:45;;;;;;;7.20;6.67;;;6.80;99.90;;;;;;5031896;28;20187;-66
2023/01/03 08:55:11;;;;;;;6.13;5.83;;;6.90;99.90;;;;;;5032090;28;20641;-65
2023/01/03 08:57:36;;;;;;;7.63;7.03;;;6.90;99.90;;;;;;5031924;28;20199;-66
2023/01/03 09:00:04;;;;;;;6.00;5.60;;;7.00;99.90;;;;;;5031493;28;20186;-65
2023/01/03 09:02:33;;;;;;;7.63;7.07;;;7.20;99.90;;;;;;5031707;28;20168;-65
2023/01/03 09:04:59;;;;;;;7.97;7.27;;;7.50;99.90;;;;;;5032122;28;20602;-65
2023/01/03 09:07:25;;;;;;;5.93;5.43;;;7.90;99.90;;;;;;5031955;28;20542;-66
2023/01/03 09:09:50;;;;;;;7.47;5.80;;;8.00;99.90;;;;;;5035948;28;20167;-65
2023/01/03 09:12:16;;;;;;;6.33;5.93;;;8.20;99.90;;;;;;5036619;28;20179;-64
2023/01/03 09:14:41;;;;;;;6.60;5.90;;;8.30;99.90;;;;;;5037248;28;20214;-64
2023/01/03 09:17:07;;;;;;;6.27;5.70;;;8.30;99.90;;;;;;5035225;28;20211;-65
2023/01/03 09:19:33;;;;;;;10.67;6.80;;;8.30;99.90;;;;;;5033113;28;20255;-64
2023/01/03 09:21:58;;;;;;;6.37;5.87;;;8.40;99.90;;;;;;5035079;28;20190;-65
2023/01/03 09:24:24;;;;;;;6.43;6.07;;;8.40;99.90;;;;;;5031787;28;20171;-65
2023/01/03 09:26:49;;;;;;;6.40;5.93;;;8.40;99.90;;;;;;5031353;28;20556;-65
2023/01/03 09:29:15;;;;;;;10.43;6.07;;;8.40;99.90;;;;;;5031547;28;20183;-65
2023/01/03 09:31:40;;;;;;;5.80;5.50;;;8.50;99.90;;;;;;5031167;28;20543;-65
2023/01/03 09:34:06;;;;;;;5.87;5.47;;;8.70;99.90;;;;;;5032313;28;20179;-66
2023/01/03 09:36:33;;;;;;;6.20;5.80;;;8.90;99.90;;;;;;5031144;28;20289;-65
2023/01/03 09:38:59;;;;;;;6.20;5.70;;;9.30;99.90;;;;;;5032618;28;20179;-65
2023/01/03 09:41:26;;;;;;;5.63;5.27;;;9.50;99.90;;;;;;5031300;28;20171;-65
2023/01/03 09:44:04;;;;;;;5.30;5.00;;;9.40;99.90;;;;;;5034242;28;20225;-65
2023/01/03 09:46:32;;;;;;;5.40;5.00;;;9.60;99.90;;;;;;5031259;28;20198;-65
2023/01/03 09:48:59;;;;;;;5.87;5.47;;;10.00;99.90;;;;;;5035782;28;20206;-66
2023/01/03 10:03:42;;;;;;;4.03;3.83;;;12.50;95.60;;;;;;5015807;28;20194;-65
2023/01/03 10:06:08;;;;;;;4.40;4.07;;;13.00;1.00;;;;;;5034668;28;20207;-65
2023/01/03 10:08:47;;;;;;;4.07;3.87;;;13.30;1.00;;;;;;5035040;28;20198;-65
2023/01/03 10:11:48;;;;;;;3.90;3.70;;;13.60;99.90;;;;;;5015439;28;20223;-66
2023/01/03 10:14:25;;;;;;;3.70;3.40;;;13.80;99.90;;;;;;5020340;28;20253;-66
2023/01/03 10:17:01;;;;;;;3.83;3.63;;;13.70;99.90;;;;;;5035048;28;20298;-65
2023/01/03 10:19:42;;;;;;;3.87;3.57;;;13.70;99.90;;;;;;5026190;28;20176;-65
2023/01/03 10:22:22;;;;;;;3.73;3.53;;;13.80;99.90;;;;;;5015480;28;20176;-65
2023/01/03 10:25:08;;;;;;;3.97;3.60;;;13.70;1.00;;;;;;5015548;28;20236;-66
2023/01/03 10:27:46;;;;;;;3.70;3.50;;;13.40;5.40;;;;;;5022878;28;20205;-66
2023/01/03 10:30:18;;;;;;;3.77;3.57;;;13.10;99.90;;;;;;5034671;28;20250;-65
2023/01/03 10:33:05;;;;;;;3.87;3.63;;;13.10;99.90;;;;;;5035112;28;20172;-66
2023/01/03 10:35:33;;;;;;;4.40;4.10;;;13.30;1.00;;;;;;5034530;28;20203;-66
2023/01/03 10:37:59;;;;;;;3.80;3.50;;;13.50;99.90;;;;;;5034455;28;20175;-66
2023/01/03 10:40:37;;;;;;;3.50;3.30;;;13.80;99.90;;;;;;5034380;28;20691;-66
2023/01/03 10:43:24;;;;;;;3.90;3.27;;;14.00;1.00;;;;;;5034838;28;20225;-66
2023/01/03 10:46:17;;;;;;;3.63;3.33;;;14.30;1.00;;;;;;5033632;28;20651;-65
2023/01/03 10:48:48;;;;;;;3.30;3.10;;;14.40;1.00;;;;;;5033870;28;20187;-66
2023/01/03 10:51:23;;;;;;;3.50;3.30;;;14.70;1.00;;;;;;5034233;28;20535;-66
2023/01/03 10:53:51;;;;;;;3.60;3.30;;;14.70;1.00;;;;;;5032553;28;20179;-66
2023/01/03 10:56:17;;;;;;;3.10;2.90;;;14.70;99.90;;;;;;5033170;28;20211;-66
2023/01/03 10:58:43;;;;;;;4.40;4.00;;;14.80;99.90;;;;;;5033987;28;20175;-66
2023/01/03 11:01:29;;;;;;;4.30;4.00;;;14.70;1.00;;;;;;5034008;28;20561;-66
2023/01/03 11:04:17;;;;;;;4.13;3.93;;;14.60;1.00;;;;;;5033918;28;20278;-66
2023/01/03 11:07:10;;;;;;;3.73;3.40;;;14.60;1.00;;;;;;5034029;28;20206;-66
2023/01/03 11:09:56;;;;;;;7.53;3.33;;;14.60;1.00;;;;;;5032370;28;20326;-66
2023/01/03 11:12:35;;;;;;;3.40;3.10;;;14.80;1.00;;;;;;5014615;28;20218;-66
2023/01/03 11:15:13;;;;;;;3.00;2.90;;;14.70;99.90;;;;;;5019079;28;20174;-66
2023/01/03 11:17:58;;;;;;;3.00;2.90;;;14.80;1.00;;;;;;5034021;28;20175;-66
2023/01/03 11:21:07;;;;;;;3.63;3.43;;;14.50;99.90;;;;;;5033266;28;20182;-66
2023/01/03 11:23:36;;;;;;;4.07;3.77;;;14.30;1.00;;;;;;5033977;28;20175;-66
2023/01/03 11:26:12;;;;;;;3.93;3.73;;;14.00;1.00;;;;;;5032010;28;20215;-66
2023/01/03 11:29:00;;;;;;;5.37;3.67;;;13.70;99.90;;;;;;5035684;28;20636;-66
2023/01/03 11:31:47;;;;;;;4.47;4.07;;;13.40;99.90;;;;;;5032816;28;20199;-66
2023/01/03 11:34:31;;;;;;;4.40;4.10;;;13.10;61.20;;;;;;5033018;28;20221;-67
2023/01/03 11:37:11;;;;;;;4.03;3.83;;;12.80;99.90;;;;;;5033439;28;20688;-67
2023/01/03 11:39:45;;;;;;;4.20;3.90;;;12.60;43.10;;;;;;5032899;28;20274;-67
2023/01/03 11:42:20;;;;;;;4.03;3.77;;;12.40;99.90;;;;;;5036141;28;20258;-66
2023/01/03 11:45:25;;;;;;;4.47;3.70;;;12.20;99.90;;;;;;5036677;28;20555;-65
2023/01/03 11:48:13;;;;;;;6.27;5.20;;;12.00;99.90;;;;;;5036610;28;20629;-66
2023/01/03 11:51:12;;;;;;;5.07;4.23;;;11.90;1.00;;;;;;5016041;28;20657;-67
2023/01/03 11:53:48;;;;;;;4.33;3.93;;;11.90;1.00;;;;;;5033940;28;20179;-67
2023/01/03 11:56:22;;;;;;;4.87;4.17;;;11.80;1.00;;;;;;5033491;28;20207;-65
2023/01/03 11:59:44;;;;;;;4.53;4.13;;;11.80;99.90;;;;;;5031200;28;20187;-66
2023/01/03 12:02:40;;;;;;;5.17;4.80;;;11.80;99.90;;;;;;5030954;28;20259;-66
2023/01/03 12:05:37;;;;;;;8.00;5.30;;;11.90;1.00;;;;;;5016181;28;20184;-66
2023/01/03 12:08:03;;;;;;;6.10;5.50;;;11.70;99.90;;;;;;5031861;28;20570;-66
2023/01/03 12:10:54;;;;;;;5.47;5.17;;;11.70;1.00;;;;;;5033502;28;20183;-66
2023/01/03 12:13:41;;;;;;;4.47;4.27;;;11.80;1.00;;;;;;5034683;28;20533;-65
2023/01/03 12:16:13;;;;;;;4.70;4.00;;;11.80;95.80;;;;;;5013071;28;20250;-67
2023/01/03 12:19:05;;;;;;;4.00;3.70;;;11.80;99.90;;;;;;5032050;28;20180;-67
2023/01/03 12:21:36;;;;;;;4.27;3.87;;;11.80;1.00;;;;;;5033559;28;20534;-67
2023/01/03 12:24:38;;;;;;;3.73;3.57;;;11.70;99.90;;;;;;5032789;28;20199;-66
2023/01/03 12:27:32;;;;;;;4.40;4.20;;;11.70;1.00;;;;;;5026342;28;20218;-66
2023/01/03 12:30:28;;;;;;;5.47;3.87;;;11.60;99.90;;;;;;5027850;28;20596;-67
2023/01/03 12:33:01;;;;;;;3.93;3.73;;;11.40;99.90;;;;;;5026752;28;20179;-66
2023/01/03 12:35:49;;;;;;;4.53;4.33;;;11.30;99.90;;;;;;5029080;28;20245;-66
2023/01/03 12:38:22;;;;;;;4.57;4.17;;;11.10;99.90;;;;;;5032387;28;20188;-66
2023/01/03 12:40:57;;;;;;;4.30;4.10;;;11.30;99.90;;;;;;5032640;28;20168;-66
2023/01/03 12:43:41;;;;;;;6.23;4.17;;;11.40;1.00;;;;;;5035623;28;20190;-66
2023/01/03 12:46:22;;;;;;;4.10;3.80;;;11.60;1.00;;;;;;5039196;28;20203;-67
2023/01/03 12:49:24;;;;;;;4.33;3.70;;;11.80;99.90;;;;;;5015358;28;20259;-67
2023/01/03 12:51:50;;;;;;;4.00;3.80;;;12.20;97.00;;;;;;5016491;28;20207;-67
2023/01/03 12:54:27;;;;;;;4.10;3.77;;;12.40;11.80;;;;;;5032619;28;20211;-66
2023/01/03 12:57:03;;;;;;;3.87;3.70;;;12.70;1.00;;;;;;5030570;28;20215;-67
2023/01/03 12:59:57;;;;;;;4.03;3.83;;;12.90;1.00;;;;;;5031717;28;20610;-66
2023/01/03 13:02:37;;;;;;;6.13;3.60;;;13.20;1.00;;;;;;5032349;28;20647;-67
2023/01/03 13:05:18;;;;;;;4.30;3.90;;;13.40;1.00;;;;;;5029554;28;20183;-66
2023/01/03 13:08:08;;;;;;;4.13;3.83;;;13.30;1.00;;;;;;5031963;28;20175;-66
2023/01/03 13:10:39;;;;;;;3.70;3.50;;;13.10;1.00;;;;;;5031096;28;20195;-67
2023/01/03 13:13:05;;;;;;;3.40;3.30;;;12.90;1.00;;;;;;5032266;28;20182;-66
2023/01/03 13:15:33;;;;;;;4.00;3.80;;;12.70;1.00;;;;;;5031561;28;20566;-66
2023/01/03 13:18:20;;;;;;;3.73;3.63;;;12.70;1.00;;;;;;5032808;28;20538;-66
2023/01/03 13:20:49;;;;;;;3.60;3.43;;;12.60;1.00;;;;;;5033530;28;20176;-66
2023/01/03 13:23:33;;;;;;;3.60;3.40;;;12.50;1.00;;;;;;5033468;28;20183;-66
2023/01/03 13:26:05;;;;;;;4.20;3.80;;;12.50;1.00;;;;;;5055548;22;20293;-64
2023/01/03 13:28:32;;;;;;;4.03;3.73;;;12.80;1.00;;;;;;5031133;28;20254;-63
2023/01/03 13:31:13;;;;;;;3.73;3.53;;;13.00;1.00;;;;;;5031314;28;20164;-62
2023/01/03 13:33:54;;;;;;;7.40;3.97;;;13.20;1.00;;;;;;5029896;28;20175;-64
2023/01/03 13:36:20;;;;;;;3.83;3.63;;;13.20;1.00;;;;;;5023350;28;20641;-64
2023/01/03 13:38:46;;;;;;;4.70;3.87;;;13.00;1.00;;;;;;5024620;28;20218;-64
2023/01/03 13:41:33;;;;;;;4.33;3.90;;;12.70;1.00;;;;;;5031130;28;20195;-64
2023/01/03 13:44:19;;;;;;;3.60;3.40;;;12.40;1.00;;;;;;5031273;28;20179;-63
2023/01/03 13:46:45;;;;;;;3.97;3.77;;;12.20;1.00;;;;;;5031577;28;20191;-63
2023/01/03 13:49:26;;;;;;;4.47;4.17;;;12.20;1.00;;;;;;5030890;28;20718;-64
2023/01/03 13:51:53;;;;;;;4.30;3.90;;;12.20;1.00;;;;;;5030641;28;20175;-64
2023/01/03 13:54:19;;;;;;;3.80;3.60;;;12.00;1.00;;;;;;5031120;28;20184;-64
2023/01/03 13:56:44;;;;;;;4.00;3.70;;;12.00;1.00;;;;;;5031151;28;20237;-64
2023/01/03 13:59:10;;;;;;;3.90;3.60;;;12.00;1.00;;;;;;5030937;28;20608;-64
2023/01/03 14:01:59;;;;;;;3.60;3.50;;;12.20;1.00;;;;;;5031099;28;20253;-64
2023/01/03 14:04:50;;;;;;;4.17;3.97;;;12.30;1.00;;;;;;5030923;28;20178;-64
2023/01/03 14:07:30;;;;;;;4.10;3.90;;;12.30;1.00;;;;;;5031246;28;20278;-63
2023/01/03 14:10:08;;;;;;;3.87;3.57;;;12.20;1.00;;;;;;5028688;28;20532;-64
2023/01/03 14:12:51;;;;;;;4.10;3.90;;;12.10;1.00;;;;;;5031070;28;20245;-64
2023/01/03 14:15:21;;;;;;;3.97;3.73;;;11.90;1.00;;;;;;5009848;28;20176;-64
2023/01/03 14:17:50;;;;;;;3.70;3.50;;;11.80;1.00;;;;;;5026128;28;20653;-64
2023/01/03 14:20:23;;;;;;;4.40;4.03;;;11.60;1.00;;;;;;5030717;28;20202;-64
2023/01/03 14:22:50;;;;;;;4.67;4.37;;;11.40;1.00;;;;;;5030603;28;20513;-64